createdAt,value
2019-05-22T00:01:41.185Z,31.17
2019-05-22T00:04:31.611Z,26.97
2019-05-22T00:07:06.119Z,32.00
2019-05-22T00:09:39.938Z,25.40
2019-05-22T00:12:17.945Z,25.20
2019-05-22T00:14:54.336Z,24.07
2019-05-22T00:17:32.499Z,23.70
2019-05-22T00:20:06.420Z,20.77
2019-05-22T00:22:39.375Z,21.93
2019-05-22T00:25:18.289Z,23.77
2019-05-22T00:27:54.233Z,22.13
2019-05-22T00:30:27.321Z,26.03
2019-05-22T00:33:00.947Z,32.83
2019-05-22T00:35:32.094Z,20.20
2019-05-22T00:38:05.709Z,22.40
2019-05-22T00:40:44.614Z,22.00
2019-05-22T00:43:18.739Z,20.33
2019-05-22T00:45:52.335Z,22.17
2019-05-22T00:48:25.841Z,20.80
2019-05-22T00:51:19.505Z,26.63
2019-05-22T00:54:00.998Z,21.50
2019-05-22T00:56:49.811Z,20.47
2019-05-22T00:59:32.037Z,20.00
2019-05-22T01:02:07.934Z,16.63
2019-05-22T01:04:41.371Z,19.10
2019-05-22T01:07:18.815Z,21.13
2019-05-22T01:09:52.351Z,16.97
2019-05-22T01:12:29.286Z,17.13
2019-05-22T01:15:06.680Z,20.60
2019-05-22T01:17:38.231Z,18.13
2019-05-22T01:20:15.104Z,17.63
2019-05-22T01:22:49.751Z,15.47
2019-05-22T01:25:24.787Z,17.43
2019-05-22T01:27:58.019Z,16.43
2019-05-22T01:30:48.692Z,17.30
2019-05-22T01:33:23.502Z,16.97
2019-05-22T01:36:13.889Z,23.63
2019-05-22T01:39:21.431Z,19.50
2019-05-22T01:41:56.735Z,18.10
2019-05-22T01:44:30.164Z,19.33
2019-05-22T01:47:07.017Z,17.37
2019-05-22T01:49:44.377Z,17.77
2019-05-22T01:52:17.291Z,15.80
2019-05-22T01:54:50.409Z,16.93
2019-05-22T01:57:23.876Z,18.30
2019-05-22T01:59:55.666Z,15.43
2019-05-22T02:02:27.011Z,19.07
2019-05-22T02:04:59.579Z,21.90
2019-05-22T02:07:31.143Z,18.20
2019-05-22T02:10:03.832Z,17.23
2019-05-22T02:12:47.222Z,14.50
2019-05-22T02:15:19.142Z,16.30
2019-05-22T02:17:51.489Z,19.70
2019-05-22T02:20:24.915Z,18.17
2019-05-22T02:22:57.607Z,16.90
2019-05-22T02:25:30.447Z,20.13
2019-05-22T02:28:01.789Z,20.00
2019-05-22T02:30:33.838Z,18.93
2019-05-22T02:33:07.749Z,20.70
2019-05-22T02:35:39.758Z,18.17
2019-05-22T02:38:12.439Z,22.77
2019-05-22T02:40:47.159Z,15.60
2019-05-22T02:43:18.732Z,17.30
2019-05-22T02:45:50.440Z,16.10
2019-05-22T02:48:26.097Z,16.27
2019-05-22T02:50:57.878Z,24.07
2019-05-22T02:53:29.918Z,19.00
2019-05-22T02:56:01.030Z,18.70
2019-05-22T02:58:34.680Z,20.70
2019-05-22T03:01:06.286Z,27.23
2019-05-22T03:03:37.706Z,17.87
2019-05-22T03:06:13.766Z,18.13
2019-05-22T03:09:29.616Z,17.10
2019-05-22T03:12:06.506Z,17.43
2019-05-22T03:14:40.724Z,18.50
2019-05-22T03:17:30.308Z,22.77
2019-05-22T03:20:04.729Z,17.40
2019-05-22T03:22:42.305Z,16.70
2019-05-22T03:25:17.634Z,18.43
2019-05-22T03:27:52.474Z,17.60
2019-05-22T03:30:27.759Z,21.60
2019-05-22T03:33:01.081Z,19.53
2019-05-22T03:35:39.142Z,17.03
2019-05-22T03:38:12.280Z,21.80
2019-05-22T03:40:44.914Z,24.07
2019-05-22T03:43:24.644Z,14.23
2019-05-22T03:45:59.189Z,18.43
2019-05-22T03:48:35.627Z,17.20
2019-05-22T03:51:13.782Z,21.90
2019-05-22T03:53:46.569Z,20.20
2019-05-22T03:56:19.908Z,18.70
2019-05-22T03:58:51.808Z,19.00
2019-05-22T04:01:23.776Z,20.00
2019-05-22T04:03:55.629Z,19.80
2019-05-22T04:06:26.980Z,19.87
2019-05-22T04:09:01.093Z,21.57
2019-05-22T04:11:38.826Z,21.13
2019-05-22T04:14:10.046Z,20.20
2019-05-22T04:16:41.779Z,21.73
2019-05-22T04:19:15.392Z,17.97
2019-05-22T04:21:47.539Z,27.17
2019-05-22T04:24:19.625Z,15.10
2019-05-22T04:26:51.404Z,15.30
2019-05-22T04:29:23.939Z,17.93
2019-05-22T04:32:00.355Z,22.50
2019-05-22T04:34:32.728Z,22.90
2019-05-22T04:37:05.565Z,22.33
2019-05-22T04:39:38.918Z,21.20
2019-05-22T04:42:12.007Z,25.97
2019-05-22T04:45:05.486Z,24.43
2019-05-22T04:47:58.763Z,29.93
2019-05-22T04:50:31.198Z,23.80
2019-05-22T04:53:03.703Z,25.80
2019-05-22T04:55:35.144Z,26.60
2019-05-22T04:58:10.812Z,21.03
2019-05-22T05:00:42.094Z,26.73
2019-05-22T05:03:14.803Z,23.70
2019-05-22T05:05:49.818Z,20.33
2019-05-22T05:08:22.098Z,22.43
2019-05-22T05:10:55.901Z,22.27
2019-05-22T05:13:27.387Z,22.53
2019-05-22T05:15:58.899Z,24.03
2019-05-22T05:18:30.565Z,27.17
2019-05-22T05:21:13.425Z,29.17
2019-05-22T05:23:44.873Z,26.00
2019-05-22T05:26:16.943Z,27.20
2019-05-22T05:28:48.794Z,27.40
2019-05-22T05:31:20.788Z,29.13
2019-05-22T05:34:24.258Z,25.33
2019-05-22T05:36:57.293Z,22.73
2019-05-22T05:40:06.167Z,23.83
2019-05-22T05:42:38.115Z,21.57
2019-05-22T05:45:13.595Z,20.93
2019-05-22T05:47:46.036Z,20.90
2019-05-22T05:50:18.321Z,24.57
2019-05-22T05:52:51.534Z,21.90
2019-05-22T05:55:25.423Z,25.10
2019-05-22T05:58:27.845Z,19.00
2019-05-22T06:01:09.911Z,21.00
2019-05-22T06:03:42.295Z,21.57
2019-05-22T06:06:53.973Z,23.60
2019-05-22T06:09:27.155Z,26.17
2019-05-22T06:11:59.510Z,22.10
2019-05-22T06:14:32.433Z,30.77
2019-05-22T06:17:16.671Z,26.00
2019-05-22T06:19:50.098Z,22.57
2019-05-22T06:22:23.210Z,31.33
2019-05-22T06:24:59.721Z,27.80
2019-05-22T06:27:44.807Z,26.93
2019-05-22T06:30:19.136Z,21.60
2019-05-22T06:33:42.796Z,21.87
2019-05-22T06:36:17.644Z,25.77
2019-05-22T06:38:59.946Z,25.77
2019-05-22T06:41:35.139Z,20.07
2019-05-22T06:44:41.184Z,23.70
2019-05-22T06:47:17.717Z,22.80
2019-05-22T06:49:53.065Z,28.90
2019-05-22T06:52:25.152Z,26.30
2019-05-22T06:54:58.599Z,28.13
2019-05-22T06:57:34.458Z,25.13
2019-05-22T07:00:31.233Z,21.90
2019-05-22T07:03:03.191Z,22.97
2019-05-22T07:05:35.011Z,19.73
2019-05-22T07:08:08.813Z,21.40
2019-05-22T07:10:41.789Z,24.03
2019-05-22T07:13:14.196Z,21.97
2019-05-22T07:15:48.681Z,23.10
2019-05-22T07:18:22.711Z,22.10
2019-05-22T07:20:57.110Z,27.20
2019-05-22T07:23:40.086Z,22.43
2019-05-22T07:26:12.479Z,28.60
2019-05-22T07:28:44.147Z,28.30
2019-05-22T07:31:15.759Z,21.23
2019-05-22T07:33:49.810Z,19.50
2019-05-22T07:36:23.933Z,23.80
2019-05-22T07:38:54.991Z,22.40
2019-05-22T07:41:26.981Z,24.50
2019-05-22T07:43:58.409Z,20.37
2019-05-22T07:46:31.032Z,21.43
2019-05-22T07:49:02.871Z,19.17
2019-05-22T07:51:51.471Z,20.23
2019-05-22T07:54:08.102Z,17.37
2019-05-22T07:56:40.482Z,19.70
2019-05-22T07:59:12.255Z,17.23
2019-05-22T08:01:44.461Z,15.70
2019-05-22T08:04:17.050Z,16.70
2019-05-22T08:06:48.929Z,17.30
2019-05-22T08:09:22.975Z,13.40
2019-05-22T08:11:54.997Z,17.07
2019-05-22T08:14:28.968Z,17.60
2019-05-22T08:17:01.525Z,11.17
2019-05-22T08:19:33.480Z,16.97
2019-05-22T08:22:07.730Z,14.83
2019-05-22T08:24:39.447Z,14.50
2019-05-22T08:27:11.599Z,10.27
2019-05-22T08:29:43.829Z,12.97
2019-05-22T08:32:15.234Z,6.93
2019-05-22T08:34:46.981Z,6.27
2019-05-22T08:37:20.681Z,5.63
2019-05-22T08:39:54.925Z,11.00
2019-05-22T08:42:27.984Z,6.17
2019-05-22T08:44:59.635Z,6.77
2019-05-22T08:47:31.001Z,7.50
2019-05-22T08:50:02.556Z,6.90
2019-05-22T08:52:35.008Z,8.40
2019-05-22T08:55:06.911Z,9.70
2019-05-22T08:57:39.775Z,5.87
2019-05-22T09:00:14.643Z,10.80
2019-05-22T09:02:46.322Z,6.60
2019-05-22T09:05:21.282Z,7.27
2019-05-22T09:07:50.591Z,12.60
2019-05-22T09:10:26.014Z,5.00
2019-05-22T09:12:56.063Z,6.97
2019-05-22T09:15:28.678Z,5.17
2019-05-22T09:18:00.307Z,4.60
2019-05-22T09:20:48.122Z,6.63
2019-05-22T09:23:05.766Z,7.57
2019-05-22T09:25:37.378Z,10.40
2019-05-22T09:28:09.304Z,6.80
2019-05-22T09:30:40.377Z,8.53
2019-05-22T09:33:12.842Z,9.23
2019-05-22T09:35:44.145Z,6.47
2019-05-22T09:38:15.698Z,7.93
2019-05-22T09:40:48.172Z,10.33
2019-05-22T09:43:20.679Z,9.13
2019-05-22T09:45:52.297Z,9.50
2019-05-22T09:48:24.290Z,11.17
2019-05-22T09:50:56.195Z,9.60
2019-05-22T09:53:27.896Z,9.67
2019-05-22T09:55:59.231Z,14.30
2019-05-22T09:58:30.933Z,9.03
2019-05-22T10:01:02.463Z,8.63
2019-05-22T10:03:34.391Z,7.07
2019-05-22T10:06:07.362Z,11.60
2019-05-22T10:08:39.593Z,5.50
2019-05-22T10:11:10.972Z,7.10
2019-05-22T10:13:44.080Z,8.23
2019-05-22T10:16:15.869Z,6.33
2019-05-22T10:18:47.542Z,5.53
2019-05-22T10:21:19.054Z,4.33
2019-05-22T10:23:51.072Z,4.60
2019-05-22T10:26:23.097Z,4.33
2019-05-22T10:28:56.112Z,7.63
2019-05-22T10:31:27.972Z,4.40
2019-05-22T10:34:00.451Z,4.33
2019-05-22T10:36:31.785Z,7.53
2019-05-22T10:39:06.490Z,5.37
2019-05-22T10:41:38.356Z,7.10
2019-05-22T10:44:10.047Z,5.03
2019-05-22T10:46:41.076Z,5.73
2019-05-22T10:49:12.336Z,5.23
2019-05-22T10:51:43.460Z,5.47
2019-05-22T10:54:14.932Z,5.70
2019-05-22T10:56:46.698Z,5.87
2019-05-22T10:59:18.044Z,5.47
2019-05-22T11:01:49.162Z,6.70
2019-05-22T11:04:22.234Z,7.50
2019-05-22T11:06:57.123Z,5.60
2019-05-22T11:09:29.079Z,5.73
2019-05-22T11:12:19.426Z,9.00
2019-05-22T11:14:53.894Z,4.70
2019-05-22T11:17:25.009Z,5.73
2019-05-22T11:19:56.499Z,5.23
2019-05-22T11:22:28.566Z,8.77
2019-05-22T11:25:00.021Z,4.90
2019-05-22T11:27:31.480Z,6.60
2019-05-22T11:30:02.790Z,6.30
2019-05-22T11:32:35.626Z,5.60
2019-05-22T11:35:09.252Z,5.53
2019-05-22T11:37:41.877Z,7.60
2019-05-22T11:40:14.881Z,8.07
2019-05-22T11:42:46.486Z,6.80
2019-05-22T11:45:18.392Z,8.33
2019-05-22T11:47:57.051Z,6.90
2019-05-22T11:50:30.220Z,10.17
2019-05-22T11:53:01.391Z,8.57
2019-05-22T11:55:43.769Z,5.17
2019-05-22T11:58:07.356Z,7.70
2019-05-22T12:00:50.211Z,6.20
2019-05-22T12:03:23.144Z,7.43
2019-05-22T12:05:55.888Z,5.90
2019-05-22T12:08:27.324Z,8.60
2019-05-22T12:10:59.451Z,7.53
2019-05-22T12:13:32.641Z,6.73
2019-05-22T12:16:05.905Z,7.27
2019-05-22T12:18:37.387Z,11.20
2019-05-22T12:21:09.114Z,10.87
2019-05-22T12:23:40.370Z,9.13
2019-05-22T12:26:13.302Z,12.30
2019-05-22T12:28:44.521Z,9.40
2019-05-22T12:31:16.588Z,7.63
2019-05-22T12:33:48.222Z,7.90
2019-05-22T12:36:19.982Z,6.23
2019-05-22T12:38:51.210Z,7.50
2019-05-22T12:41:23.645Z,11.67
2019-05-22T12:43:54.848Z,6.03
2019-05-22T12:46:27.533Z,8.60
2019-05-22T12:49:01.084Z,5.33
2019-05-22T12:51:34.027Z,5.50
2019-05-22T12:54:05.867Z,12.73
2019-05-22T12:56:56.902Z,5.00
2019-05-22T12:59:29.214Z,5.37
2019-05-22T13:02:01.442Z,4.90
2019-05-22T13:04:33.080Z,5.73
2019-05-22T13:07:05.016Z,4.33
2019-05-22T13:09:36.546Z,10.90
2019-05-22T13:12:10.458Z,22.53
2019-05-22T13:14:41.576Z,4.93
2019-05-22T13:17:15.240Z,4.47
2019-05-22T13:19:58.424Z,5.23
2019-05-22T13:22:33.941Z,7.67
2019-05-22T13:25:08.604Z,4.90
2019-05-22T13:27:41.770Z,4.60
2019-05-22T13:30:16.476Z,4.80
2019-05-22T13:32:49.265Z,3.97
2019-05-22T13:35:23.989Z,7.40
2019-05-22T13:37:58.145Z,6.17
2019-05-22T13:40:30.520Z,4.60
2019-05-22T13:43:04.296Z,3.43
2019-05-22T13:45:36.572Z,3.73
2019-05-22T13:48:08.638Z,7.67
2019-05-22T13:50:40.499Z,10.10
2019-05-22T13:53:14.203Z,3.53
2019-05-22T13:55:46.175Z,7.00
2019-05-22T13:58:20.631Z,4.33
2019-05-22T14:00:51.789Z,18.10
2019-05-22T14:03:23.820Z,11.57
2019-05-22T14:05:56.100Z,7.33
2019-05-22T14:08:39.677Z,3.47
2019-05-22T14:11:12.540Z,5.00
2019-05-22T14:13:44.248Z,7.53
2019-05-22T14:16:15.512Z,5.10
2019-05-22T14:19:06.215Z,46.60
2019-05-22T14:21:37.357Z,4.33
2019-05-22T14:24:09.238Z,4.53
2019-05-22T14:26:40.568Z,3.80
2019-05-22T14:29:12.076Z,3.90
2019-05-22T14:31:43.453Z,3.30
2019-05-22T14:34:15.122Z,4.67
2019-05-22T14:36:46.335Z,3.60
2019-05-22T14:39:17.932Z,4.13
2019-05-22T14:41:49.320Z,5.07
2019-05-22T14:44:21.962Z,9.50
2019-05-22T14:46:53.180Z,5.30
2019-05-22T14:49:24.644Z,4.57
2019-05-22T14:51:56.791Z,4.07
2019-05-22T14:54:28.571Z,4.83
2019-05-22T14:57:00.740Z,3.37
2019-05-22T14:59:32.806Z,2.53
2019-05-22T15:02:05.440Z,3.40
2019-05-22T15:04:36.956Z,3.23
2019-05-22T15:07:08.860Z,4.53
2019-05-22T15:09:40.262Z,3.93
2019-05-22T15:12:11.393Z,3.00
2019-05-22T15:15:02.021Z,3.90
2019-05-22T15:17:33.732Z,2.83
2019-05-22T15:20:06.334Z,4.80
2019-05-22T15:22:38.326Z,10.17
2019-05-22T15:25:10.372Z,4.50
2019-05-22T15:27:41.756Z,4.20
2019-05-22T15:30:14.195Z,7.50
2019-05-22T15:32:45.554Z,3.10
2019-05-22T15:35:17.246Z,4.03
2019-05-22T15:37:48.445Z,3.70
2019-05-22T15:40:20.318Z,6.90
2019-05-22T15:42:51.561Z,4.20
2019-05-22T15:45:25.786Z,3.00
2019-05-22T15:47:58.353Z,3.17
2019-05-22T15:50:34.117Z,2.77
2019-05-22T15:53:12.869Z,3.20
2019-05-22T15:55:44.285Z,2.90
2019-05-22T15:58:16.915Z,2.77
2019-05-22T16:00:50.358Z,3.10
2019-05-22T16:03:24.958Z,2.60
2019-05-22T16:05:57.162Z,9.77
2019-05-22T16:08:30.922Z,3.00
2019-05-22T16:11:21.980Z,2.93
2019-05-22T16:13:54.309Z,3.90
2019-05-22T16:16:27.768Z,3.33
2019-05-22T16:19:02.951Z,8.53
2019-05-22T16:21:36.542Z,8.23
2019-05-22T16:24:07.893Z,4.97
2019-05-22T16:26:39.426Z,5.80
2019-05-22T16:29:18.406Z,3.30
2019-05-22T16:31:52.024Z,4.60
2019-05-22T16:34:23.184Z,4.07
2019-05-22T16:36:55.858Z,3.20
2019-05-22T16:39:27.649Z,5.53
2019-05-22T16:41:59.694Z,3.90
2019-05-22T16:44:32.094Z,3.17
2019-05-22T16:47:04.544Z,4.40
2019-05-22T16:49:37.170Z,7.00
2019-05-22T16:52:11.657Z,4.27
2019-05-22T16:54:43.709Z,6.13
2019-05-22T16:57:15.671Z,3.63
2019-05-22T16:59:47.306Z,6.80
2019-05-22T17:02:19.016Z,4.00
2019-05-22T17:04:50.216Z,11.10
2019-05-22T17:07:21.568Z,4.13
2019-05-22T17:09:54.075Z,4.73
2019-05-22T17:12:25.904Z,5.93
2019-05-22T17:14:56.989Z,4.03
2019-05-22T17:17:28.320Z,5.13
2019-05-22T17:19:59.864Z,3.40
2019-05-22T17:22:31.212Z,3.57
2019-05-22T17:25:02.558Z,3.47
2019-05-22T17:27:40.158Z,4.23
2019-05-22T17:30:12.942Z,3.10
2019-05-22T17:32:45.331Z,4.00
2019-05-22T17:35:18.677Z,3.27
2019-05-22T17:37:50.084Z,3.40
2019-05-22T17:40:23.758Z,3.60
2019-05-22T17:42:55.739Z,2.97
2019-05-22T17:45:28.213Z,4.10
2019-05-22T17:47:59.648Z,6.20
2019-05-22T17:50:31.066Z,3.67
2019-05-22T17:53:04.093Z,4.27
2019-05-22T17:55:54.341Z,2.60
2019-05-22T17:58:29.898Z,2.47
2019-05-22T18:01:00.586Z,4.43
2019-05-22T18:03:32.866Z,4.13
2019-05-22T18:06:05.826Z,3.77
2019-05-22T18:08:37.477Z,5.67
2019-05-22T18:11:08.924Z,4.93
2019-05-22T18:14:02.176Z,2.83
2019-05-22T18:16:34.404Z,5.77
2019-05-22T18:19:07.173Z,2.50
2019-05-22T18:21:38.340Z,6.87
2019-05-22T18:24:09.861Z,4.30
2019-05-22T18:26:42.102Z,2.73
2019-05-22T18:29:32.522Z,4.43
2019-05-22T18:32:04.624Z,3.17
2019-05-22T18:34:35.799Z,2.63
2019-05-22T18:37:07.042Z,3.90
2019-05-22T18:39:38.406Z,2.90
2019-05-22T18:42:09.894Z,2.50
2019-05-22T18:44:41.237Z,2.80
2019-05-22T18:47:12.654Z,2.53
2019-05-22T18:49:44.273Z,6.33
2019-05-22T18:52:15.503Z,3.43
2019-05-22T18:54:47.067Z,3.20
2019-05-22T18:57:18.890Z,4.17
2019-05-22T18:59:50.239Z,4.80
2019-05-22T19:02:22.236Z,4.20
2019-05-22T19:04:53.505Z,2.93
2019-05-22T19:07:24.719Z,2.33
2019-05-22T19:09:56.046Z,3.77
2019-05-22T19:12:39.170Z,2.43
2019-05-22T19:15:10.719Z,1.90
2019-05-22T19:17:42.108Z,2.00
2019-05-22T19:20:14.480Z,3.13
2019-05-22T19:22:59.611Z,2.67
2019-05-22T19:25:20.575Z,2.37
2019-05-22T19:27:51.926Z,2.23
2019-05-22T19:30:24.269Z,2.23
2019-05-22T19:32:55.551Z,2.37
2019-05-22T19:35:26.883Z,2.63
2019-05-22T19:37:58.240Z,2.40
2019-05-22T19:40:29.821Z,2.97
2019-05-22T19:43:02.232Z,3.03
2019-05-22T19:45:34.836Z,5.50
2019-05-22T19:48:07.337Z,5.53
2019-05-22T19:50:39.108Z,2.20
2019-05-22T19:53:18.590Z,2.80
2019-05-22T19:55:47.174Z,2.30
2019-05-22T19:58:21.937Z,4.07
2019-05-22T20:00:52.780Z,2.50
2019-05-22T20:03:25.481Z,5.57
2019-05-22T20:05:57.543Z,2.27
2019-05-22T20:08:28.782Z,3.40
2019-05-22T20:11:00.296Z,8.13
2019-05-22T20:13:31.966Z,2.40
2019-05-22T20:16:10.374Z,2.70
2019-05-22T20:18:41.653Z,2.30
2019-05-22T20:21:12.977Z,3.73
2019-05-22T20:23:55.726Z,3.70
2019-05-22T20:26:27.554Z,3.33
2019-05-22T20:28:58.970Z,2.20
2019-05-22T20:31:30.259Z,2.40
2019-05-22T20:34:01.869Z,3.30
2019-05-22T20:36:35.191Z,2.00
2019-05-22T20:39:09.521Z,2.23
2019-05-22T20:41:41.565Z,3.83
2019-05-22T20:44:12.745Z,3.13
2019-05-22T20:46:46.330Z,3.27
2019-05-22T20:49:19.881Z,2.50
2019-05-22T20:51:52.699Z,5.00
2019-05-22T20:54:24.709Z,2.80
2019-05-22T20:56:57.135Z,4.03
2019-05-22T20:59:30.062Z,3.20
2019-05-22T21:02:01.692Z,3.20
2019-05-22T21:04:33.406Z,5.83
2019-05-22T21:07:07.150Z,2.60
2019-05-22T21:09:38.794Z,6.13
2019-05-22T21:12:12.827Z,3.83
2019-05-22T21:14:44.019Z,2.73
2019-05-22T21:17:16.137Z,7.73
2019-05-22T21:19:48.113Z,5.30
2019-05-22T21:22:23.570Z,4.50
2019-05-22T21:24:54.736Z,5.07
2019-05-22T21:27:26.508Z,3.47
2019-05-22T21:29:58.121Z,2.60
2019-05-22T21:32:29.657Z,2.93
2019-05-22T21:35:12.827Z,2.27
2019-05-22T21:37:44.240Z,8.30
2019-05-22T21:40:18.093Z,8.03
2019-05-22T21:42:50.119Z,3.27
2019-05-22T21:45:21.521Z,5.20
2019-05-22T21:47:53.637Z,3.20
2019-05-22T21:50:25.728Z,6.67
2019-05-22T21:52:57.257Z,3.30
2019-05-22T21:55:30.488Z,8.10
2019-05-22T21:58:02.335Z,3.10
2019-05-22T22:00:52.735Z,3.63
2019-05-22T22:03:27.657Z,4.20
2019-05-22T22:06:00.118Z,14.77
2019-05-22T22:08:32.084Z,6.23
2019-05-22T22:11:04.418Z,5.10
2019-05-22T22:13:37.966Z,3.57
2019-05-22T22:16:09.914Z,2.97
2019-05-22T22:18:50.171Z,5.93
2019-05-22T22:21:22.269Z,4.60
2019-05-22T22:23:54.210Z,3.57
2019-05-22T22:26:26.827Z,2.93
2019-05-22T22:28:58.434Z,3.30
2019-05-22T22:31:33.378Z,4.30
2019-05-22T22:34:15.252Z,5.33
2019-05-22T22:36:47.280Z,9.27
2019-05-22T22:39:21.660Z,5.57
2019-05-22T22:41:53.580Z,3.80
2019-05-22T22:44:25.793Z,4.23
2019-05-22T22:47:01.424Z,3.97
2019-05-22T22:49:35.076Z,10.43
2019-05-22T22:52:07.862Z,3.13
2019-05-22T22:54:39.891Z,3.20
2019-05-22T22:57:13.043Z,5.97
2019-05-22T22:59:44.742Z,4.17
2019-05-22T23:02:22.682Z,3.17
2019-05-22T23:05:13.987Z,6.33
2019-05-22T23:07:46.018Z,3.30
2019-05-22T23:10:19.650Z,4.07
2019-05-22T23:12:54.347Z,4.07
2019-05-22T23:15:26.808Z,4.83
2019-05-22T23:17:57.926Z,3.40
2019-05-22T23:20:29.427Z,4.30
2019-05-22T23:23:00.059Z,4.73
2019-05-22T23:25:32.544Z,12.37
2019-05-22T23:28:04.859Z,3.57
2019-05-22T23:30:37.707Z,3.30
2019-05-22T23:33:15.986Z,4.30
2019-05-22T23:35:48.353Z,3.30
2019-05-22T23:38:19.892Z,4.70
2019-05-22T23:40:51.288Z,4.50
2019-05-22T23:43:22.436Z,4.30
2019-05-22T23:45:55.035Z,6.23
2019-05-22T23:48:28.203Z,4.13
2019-05-22T23:51:00.108Z,7.13
2019-05-22T23:53:33.099Z,4.87
2019-05-22T23:56:05.133Z,9.37
2019-05-22T23:58:51.478Z,5.67
